Huvudsida
METAR-TAF:

METAR-TAF

Flygplatser :

Trollhättan-Vänersborgs flygplats

Trollhättan-Vänersborg, Sverige

latitud: 58-19N, longitud: 012-21E, höjd: 41 m

Aktuellt väderrapport

Denna rapport gjordes för 18 minuter sedan, klockan 05:50 UTC
Vind 19 kt från väst/sydväst i byarna ända upp till 36 kt
Temperatur 12°C
Fuktighet 58%
Tryck 996 hPa
Sikt 10 km eller mer

METAR: ESGT 220550Z AUTO 24019G36KT 9999 NCD 12/04 Q0996

Tid: 08:08 (06:08 UTC)

Väderprognos

Denna rapport gjordes för 15 timmar och 38 minuter sedan, klockan 14:30 UTC
Prognos gäller från 21 kl. 15 UTC till 21 kl. 19 UTC
Vind 20 kt från sydväst i byarna ända upp till 32 kt
Sikt 10 km eller mer
Brutna moln på en höjd av 2500 ft
Temporärt
från 21 kl. 15 UTC till 21 kl. 19 UTC
Vind 22 kt från sydväst i byarna ända upp till 42 kt
Brutna moln på en höjd av 2500 ft, Cumulonimbus.
regnskurar

TAF: ESGT 211430Z 2115/2119 22020G32KT 9999 BKN025 TEMPO 2115/2119 22022G42KT SHRA BKN025CB

Aktuella väderrapporter och prognoser från 4000 flygplatser (METAR- och TAF-rapporter).

De tillgängliga stationerna syns som gula och röda prickar på kartan.

För musen över prickarna för att se namnen på stationerna.

Klicka sedan för att få väderrapporter och prognoser.

För att ändra kartan: Klicka på de gröna knapparna med ett svart kors på för att zooma in; den gröna knappen med ett streck på för att zooma ut; eller på de gröna pilarna för angränsande kartor.


METAR-TAF: